Amity Harbor, New York
Current Conditions -  °F | °C
As of 9:53 PM on Friday 19 Dec 2014 (Local Time) from KFRG Reporting Station
Clear Clear  
Wind Chill: -4°   Ceiling: Unl
Heat Index:   Visibility: 10mi
Dew Point: -6°   Wind: 7mph
Humidity: 64%   Direction: 350°N
Pressure: 30.16"   Gusts: NA
Location:  40.6858°N, 73.4152°W
Report Text: KFRG 200253Z 35006KT 10SM CLR 00/M06 A3016 RMK AO2 SLP212 T00001061 53008
Loading
Personal Weather Stations






























Interactive Weather Map New forecast layout! Learn more

10-Day Weather Forecast

Advertisements
Track Severe Weather on mobile